sensor_id;sensor_type;location;lat;lon;timestamp;pressure;altitude;pressure_sealevel;temperature;humidity
63535;BME280;55128;50.230;18.944;2022-09-23T00:04:51;98973.50;;;8.73;77.63
63535;BME280;55128;50.230;18.944;2022-09-23T00:09:52;98965.44;;;8.76;77.61
63535;BME280;55128;50.230;18.944;2022-09-23T00:14:54;98963.44;;;8.84;77.72
63535;BME280;55128;50.230;18.944;2022-09-23T00:19:55;98966.13;;;8.83;77.60
63535;BME280;55128;50.230;18.944;2022-09-23T00:24:55;98959.84;;;8.85;77.62
63535;BME280;55128;50.230;18.944;2022-09-23T00:29:56;98959.59;;;8.93;77.38
63535;BME280;55128;50.230;18.944;2022-09-23T00:34:56;98955.28;;;8.90;77.45
63535;BME280;55128;50.230;18.944;2022-09-23T00:39:57;98943.75;;;8.91;77.61
63535;BME280;55128;50.230;18.944;2022-09-23T00:44:59;98939.44;;;8.89;77.77
63535;BME280;55128;50.230;18.944;2022-09-23T00:55:43;98935.94;;;8.88;77.94
63535;BME280;55128;50.230;18.944;2022-09-23T01:00:45;98934.91;;;8.92;77.72
63535;BME280;55128;50.230;18.944;2022-09-23T01:05:46;98935.00;;;8.89;77.79
63535;BME280;55128;50.230;18.944;2022-09-23T01:11:09;98937.59;;;8.91;77.82
63535;BME280;55128;50.230;18.944;2022-09-23T01:16:23;98936.84;;;8.87;77.68
63535;BME280;55128;50.230;18.944;2022-09-23T01:38:07;98926.63;;;8.77;78.86
63535;BME280;55128;50.230;18.944;2022-09-23T01:43:21;98923.97;;;8.77;78.65
63535;BME280;55128;50.230;18.944;2022-09-23T02:04:04;98924.09;;;8.99;78.40
63535;BME280;55128;50.230;18.944;2022-09-23T02:09:14;98918.69;;;9.02;78.28
63535;BME280;55128;50.230;18.944;2022-09-23T02:14:23;98920.22;;;9.09;78.21
63535;BME280;55128;50.230;18.944;2022-09-23T02:19:41;98914.97;;;9.07;78.11
63535;BME280;55128;50.230;18.944;2022-09-23T02:24:44;98914.78;;;9.12;78.18
63535;BME280;55128;50.230;18.944;2022-09-23T02:29:52;98912.22;;;9.10;77.65
63535;BME280;55128;50.230;18.944;2022-09-23T02:35:03;98922.53;;;9.18;77.80
63535;BME280;55128;50.230;18.944;2022-09-23T02:40:18;98914.59;;;9.18;77.84
63535;BME280;55128;50.230;18.944;2022-09-23T02:45:21;98914.69;;;9.15;78.17
63535;BME280;55128;50.230;18.944;2022-09-23T02:50:22;98915.44;;;9.19;78.11
63535;BME280;55128;50.230;18.944;2022-09-23T02:55:24;98921.97;;;9.08;78.15
63535;BME280;55128;50.230;18.944;2022-09-23T03:05:55;98909.44;;;9.13;78.73
63535;BME280;55128;50.230;18.944;2022-09-23T03:11:09;98899.56;;;9.19;78.47
63535;BME280;55128;50.230;18.944;2022-09-23T03:16:24;98902.16;;;9.20;78.35
63535;BME280;55128;50.230;18.944;2022-09-23T03:21:32;98898.75;;;9.17;78.46
63535;BME280;55128;50.230;18.944;2022-09-23T03:26:37;98904.19;;;9.12;79.04
63535;BME280;55128;50.230;18.944;2022-09-23T03:31:39;98911.38;;;9.08;79.38
63535;BME280;55128;50.230;18.944;2022-09-23T03:36:54;98893.59;;;9.12;79.45
63535;BME280;55128;50.230;18.944;2022-09-23T03:42:14;98911.19;;;9.14;79.08
63535;BME280;55128;50.230;18.944;2022-09-23T03:47:16;98905.50;;;9.25;78.70
63535;BME280;55128;50.230;18.944;2022-09-23T03:52:22;98898.00;;;9.13;78.71
63535;BME280;55128;50.230;18.944;2022-09-23T03:57:23;98909.72;;;9.06;78.64
63535;BME280;55128;50.230;18.944;2022-09-23T04:02:26;98903.66;;;9.02;78.86
63535;BME280;55128;50.230;18.944;2022-09-23T04:07:26;98903.88;;;8.96;78.92
63535;BME280;55128;50.230;18.944;2022-09-23T04:12:27;98901.50;;;8.88;79.35
63535;BME280;55128;50.230;18.944;2022-09-23T04:17:28;98902.91;;;8.73;79.18
63535;BME280;55128;50.230;18.944;2022-09-23T04:22:28;98895.63;;;8.53;80.28
63535;BME280;55128;50.230;18.944;2022-09-23T04:27:29;98896.75;;;8.73;79.15
63535;BME280;55128;50.230;18.944;2022-09-23T04:32:29;98897.75;;;8.69;79.01
63535;BME280;55128;50.230;18.944;2022-09-23T04:37:31;98900.41;;;8.69;78.78
63535;BME280;55128;50.230;18.944;2022-09-23T04:42:31;98905.38;;;8.78;79.18
63535;BME280;55128;50.230;18.944;2022-09-23T04:47:32;98907.88;;;8.83;78.94
63535;BME280;55128;50.230;18.944;2022-09-23T04:52:32;98899.91;;;8.84;78.99
63535;BME280;55128;50.230;18.944;2022-09-23T04:57:33;98896.88;;;9.20;79.00
63535;BME280;55128;50.230;18.944;2022-09-23T05:02:33;98899.75;;;9.38;78.81
63535;BME280;55128;50.230;18.944;2022-09-23T05:07:35;98902.53;;;9.58;77.85
63535;BME280;55128;50.230;18.944;2022-09-23T05:12:36;98905.44;;;9.98;78.62
63535;BME280;55128;50.230;18.944;2022-09-23T05:17:36;98915.59;;;10.97;76.70
63535;BME280;55128;50.230;18.944;2022-09-23T05:22:37;98917.78;;;12.43;73.72
63535;BME280;55128;50.230;18.944;2022-09-23T05:27:38;98921.84;;;13.22;67.33
63535;BME280;55128;50.230;18.944;2022-09-23T05:32:38;98920.16;;;13.88;65.76
63535;BME280;55128;50.230;18.944;2022-09-23T05:37:39;98930.56;;;13.92;64.87
63535;BME280;55128;50.230;18.944;2022-09-23T05:42:40;98931.81;;;14.50;64.67
63535;BME280;55128;50.230;18.944;2022-09-23T05:47:40;98928.19;;;14.67;64.42
63535;BME280;55128;50.230;18.944;2022-09-23T05:52:43;98927.16;;;14.22;63.45
63535;BME280;55128;50.230;18.944;2022-09-23T05:57:43;98933.19;;;14.26;63.55
63535;BME280;55128;50.230;18.944;2022-09-23T06:02:46;98937.38;;;13.98;64.29
63535;BME280;55128;50.230;18.944;2022-09-23T06:07:47;98936.97;;;14.06;64.77
63535;BME280;55128;50.230;18.944;2022-09-23T06:12:48;98939.03;;;14.00;64.53
63535;BME280;55128;50.230;18.944;2022-09-23T06:17:49;98934.06;;;15.04;64.26
63535;BME280;55128;50.230;18.944;2022-09-23T06:22:51;98935.94;;;14.24;62.66
63535;BME280;55128;50.230;18.944;2022-09-23T06:27:53;98933.38;;;14.38;63.24
63535;BME280;55128;50.230;18.944;2022-09-23T06:32:55;98938.13;;;14.65;62.71
63535;BME280;55128;50.230;18.944;2022-09-23T06:37:57;98939.38;;;14.26;63.23
63535;BME280;55128;50.230;18.944;2022-09-23T06:42:58;98944.72;;;14.10;63.91
63535;BME280;55128;50.230;18.944;2022-09-23T06:48:00;98943.44;;;14.02;63.64
63535;BME280;55128;50.230;18.944;2022-09-23T06:53:03;98955.84;;;14.18;62.97
63535;BME280;55128;50.230;18.944;2022-09-23T06:58:04;98955.06;;;14.48;62.97
63535;BME280;55128;50.230;18.944;2022-09-23T07:03:08;98958.66;;;13.84;64.41
63535;BME280;55128;50.230;18.944;2022-09-23T07:08:09;98955.59;;;13.74;64.39
63535;BME280;55128;50.230;18.944;2022-09-23T07:13:09;98953.38;;;14.15;64.07
63535;BME280;55128;50.230;18.944;2022-09-23T07:18:10;98949.66;;;14.18;64.02
63535;BME280;55128;50.230;18.944;2022-09-23T07:23:11;98950.41;;;14.52;62.83
63535;BME280;55128;50.230;18.944;2022-09-23T07:28:12;98958.94;;;16.37;61.36
63535;BME280;55128;50.230;18.944;2022-09-23T07:33:13;98966.75;;;17.09;55.98
63535;BME280;55128;50.230;18.944;2022-09-23T07:38:13;98966.22;;;16.62;55.32
63535;BME280;55128;50.230;18.944;2022-09-23T07:43:14;98969.88;;;16.61;56.78
63535;BME280;55128;50.230;18.944;2022-09-23T07:48:14;98964.53;;;17.16;54.75
63535;BME280;55128;50.230;18.944;2022-09-23T07:53:15;98965.94;;;17.34;53.30
63535;BME280;55128;50.230;18.944;2022-09-23T07:58:15;98964.28;;;17.19;53.20
63535;BME280;55128;50.230;18.944;2022-09-23T08:03:16;98966.00;;;19.45;47.99
63535;BME280;55128;50.230;18.944;2022-09-23T08:08:17;98975.03;;;21.66;50.07
63535;BME280;55128;50.230;18.944;2022-09-23T08:13:17;98976.22;;;22.25;46.16
63535;BME280;55128;50.230;18.944;2022-09-23T08:18:18;98969.84;;;24.59;35.86
63535;BME280;55128;50.230;18.944;2022-09-23T08:23:19;98977.06;;;26.54;34.08
63535;BME280;55128;50.230;18.944;2022-09-23T08:28:20;98976.53;;;29.50;29.52
63535;BME280;55128;50.230;18.944;2022-09-23T08:33:21;98971.50;;;30.00;29.51
63535;BME280;55128;50.230;18.944;2022-09-23T08:38:22;98970.19;;;30.26;27.26
63535;BME280;55128;50.230;18.944;2022-09-23T08:43:26;98957.25;;;26.79;30.81
63535;BME280;55128;50.230;18.944;2022-09-23T08:48:29;98956.66;;;28.39;29.63
63535;BME280;55128;50.230;18.944;2022-09-23T08:53:33;98954.84;;;26.67;30.19
63535;BME280;55128;50.230;18.944;2022-09-23T08:58:42;98961.56;;;23.66;35.75
63535;BME280;55128;50.230;18.944;2022-09-23T09:03:54;98953.00;;;22.73;36.86
63535;BME280;55128;50.230;18.944;2022-09-23T09:09:01;98943.09;;;23.13;41.22
63535;BME280;55128;50.230;18.944;2022-09-23T09:14:04;98948.47;;;27.67;30.37
63535;BME280;55128;50.230;18.944;2022-09-23T09:19:19;98954.75;;;27.84;30.50
63535;BME280;55128;50.230;18.944;2022-09-23T09:24:30;98945.19;;;26.98;30.38
63535;BME280;55128;50.230;18.944;2022-09-23T09:29:37;98946.22;;;25.85;29.80
63535;BME280;55128;50.230;18.944;2022-09-23T09:34:46;98944.66;;;26.43;30.67
63535;BME280;55128;50.230;18.944;2022-09-23T09:39:49;98931.88;;;24.12;32.30
63535;BME280;55128;50.230;18.944;2022-09-23T09:44:54;98914.97;;;22.94;35.08
63535;BME280;55128;50.230;18.944;2022-09-23T09:50:09;98922.16;;;26.67;29.05
63535;BME280;55128;50.230;18.944;2022-09-23T10:10:52;98893.84;;;22.18;35.90
63535;BME280;55128;50.230;18.944;2022-09-23T10:16:00;98895.56;;;20.62;38.91
63535;BME280;55128;50.230;18.944;2022-09-23T10:21:11;98894.66;;;19.50;39.87
63535;BME280;55128;50.230;18.944;2022-09-23T10:26:15;98886.34;;;19.07;40.35
63535;BME280;55128;50.230;18.944;2022-09-23T10:31:29;98885.50;;;19.87;38.49
63535;BME280;55128;50.230;18.944;2022-09-23T10:36:32;98875.56;;;20.10;38.16
63535;BME280;55128;50.230;18.944;2022-09-23T10:41:39;98868.38;;;19.76;39.65
63535;BME280;55128;50.230;18.944;2022-09-23T10:47:25;98880.28;;;19.27;41.73
63535;BME280;55128;50.230;18.944;2022-09-23T11:09:37;98864.56;;;18.74;42.22
63535;BME280;55128;50.230;18.944;2022-09-23T11:20:49;98843.66;;;19.02;38.01
63535;BME280;55128;50.230;18.944;2022-09-23T11:26:31;98834.16;;;18.50;38.09
63535;BME280;55128;50.230;18.944;2022-09-23T11:37:11;98834.22;;;18.00;40.73
63535;BME280;55128;50.230;18.944;2022-09-23T11:42:26;98830.31;;;18.41;40.41
63535;BME280;55128;50.230;18.944;2022-09-23T11:47:50;98827.81;;;18.26;41.57
63535;BME280;55128;50.230;18.944;2022-09-23T11:52:53;98824.59;;;18.21;42.24
63535;BME280;55128;50.230;18.944;2022-09-23T11:58:20;98826.69;;;18.05;42.70
63535;BME280;55128;50.230;18.944;2022-09-23T12:03:43;98817.56;;;18.08;43.15
63535;BME280;55128;50.230;18.944;2022-09-23T12:08:50;98812.72;;;17.63;45.51
63535;BME280;55128;50.230;18.944;2022-09-23T12:14:26;98800.47;;;18.33;44.37
63535;BME280;55128;50.230;18.944;2022-09-23T12:24:53;98789.84;;;18.67;41.98
63535;BME280;55128;50.230;18.944;2022-09-23T12:30:03;98787.19;;;18.18;38.42
63535;BME280;55128;50.230;18.944;2022-09-23T12:35:04;98775.63;;;18.53;38.08
63535;BME280;55128;50.230;18.944;2022-09-23T12:40:30;98777.34;;;18.65;39.34
63535;BME280;55128;50.230;18.944;2022-09-23T12:50:51;98763.00;;;18.42;39.10
63535;BME280;55128;50.230;18.944;2022-09-23T12:55:52;98757.38;;;18.10;40.88
63535;BME280;55128;50.230;18.944;2022-09-23T13:01:26;98751.66;;;17.91;39.56
63535;BME280;55128;50.230;18.944;2022-09-23T13:06:57;98753.09;;;18.08;38.37
63535;BME280;55128;50.230;18.944;2022-09-23T13:11:58;98747.81;;;18.30;38.65
63535;BME280;55128;50.230;18.944;2022-09-23T13:17:00;98739.25;;;18.01;38.17
63535;BME280;55128;50.230;18.944;2022-09-23T13:22:07;98729.91;;;17.94;38.41
63535;BME280;55128;50.230;18.944;2022-09-23T13:27:34;98726.81;;;17.63;38.70
63535;BME280;55128;50.230;18.944;2022-09-23T13:32:43;98719.97;;;18.07;37.56
63535;BME280;55128;50.230;18.944;2022-09-23T13:37:46;98714.31;;;18.23;39.08
63535;BME280;55128;50.230;18.944;2022-09-23T13:42:53;98715.88;;;18.25;39.63
63535;BME280;55128;50.230;18.944;2022-09-23T13:48:14;98712.84;;;18.19;39.27
63535;BME280;55128;50.230;18.944;2022-09-23T13:53:35;98704.22;;;17.65;38.95
63535;BME280;55128;50.230;18.944;2022-09-23T13:58:35;98694.94;;;17.45;40.50
63535;BME280;55128;50.230;18.944;2022-09-23T14:03:37;98701.22;;;17.70;40.74
63535;BME280;55128;50.230;18.944;2022-09-23T14:08:40;98703.97;;;17.81;40.71
63535;BME280;55128;50.230;18.944;2022-09-23T14:13:44;98693.06;;;17.96;40.63
63535;BME280;55128;50.230;18.944;2022-09-23T14:18:47;98688.66;;;17.34;40.09
63535;BME280;55128;50.230;18.944;2022-09-23T14:23:49;98680.44;;;17.11;41.10
63535;BME280;55128;50.230;18.944;2022-09-23T14:28:49;98681.94;;;17.02;41.56
63535;BME280;55128;50.230;18.944;2022-09-23T14:33:51;98684.13;;;17.10;41.76
63535;BME280;55128;50.230;18.944;2022-09-23T14:38:51;98684.97;;;17.10;42.46
63535;BME280;55128;50.230;18.944;2022-09-23T14:43:57;98681.34;;;16.99;40.68
63535;BME280;55128;50.230;18.944;2022-09-23T14:54:44;98667.31;;;16.82;40.90
63535;BME280;55128;50.230;18.944;2022-09-23T14:59:54;98669.22;;;16.80;41.59
63535;BME280;55128;50.230;18.944;2022-09-23T15:05:17;98663.31;;;17.01;42.12
63535;BME280;55128;50.230;18.944;2022-09-23T15:10:25;98653.59;;;17.24;40.73
63535;BME280;55128;50.230;18.944;2022-09-23T15:15:27;98665.16;;;17.61;40.81
63535;BME280;55128;50.230;18.944;2022-09-23T15:20:27;98664.06;;;17.64;41.85
63535;BME280;55128;50.230;18.944;2022-09-23T15:25:39;98665.38;;;17.82;41.69
63535;BME280;55128;50.230;18.944;2022-09-23T15:30:40;98664.31;;;17.61;43.16
63535;BME280;55128;50.230;18.944;2022-09-23T15:35:47;98663.16;;;17.52;43.27
63535;BME280;55128;50.230;18.944;2022-09-23T15:40:48;98659.91;;;17.23;43.46
63535;BME280;55128;50.230;18.944;2022-09-23T15:45:56;98652.13;;;16.68;45.70
63535;BME280;55128;50.230;18.944;2022-09-23T15:51:03;98659.13;;;16.58;46.44
63535;BME280;55128;50.230;18.944;2022-09-23T15:56:04;98647.97;;;16.26;47.59
63535;BME280;55128;50.230;18.944;2022-09-23T16:01:05;98653.63;;;15.96;50.06
63535;BME280;55128;50.230;18.944;2022-09-23T16:06:10;98649.69;;;15.74;50.06
63535;BME280;55128;50.230;18.944;2022-09-23T16:11:20;98655.03;;;15.47;53.32
63535;BME280;55128;50.230;18.944;2022-09-23T16:16:22;98646.63;;;14.97;53.08
63535;BME280;55128;50.230;18.944;2022-09-23T16:21:24;98644.72;;;14.56;54.40
63535;BME280;55128;50.230;18.944;2022-09-23T16:26:30;98644.88;;;14.24;55.78
63535;BME280;55128;50.230;18.944;2022-09-23T16:31:31;98643.66;;;13.85;58.31
63535;BME280;55128;50.230;18.944;2022-09-23T16:36:36;98643.28;;;13.61;57.83
63535;BME280;55128;50.230;18.944;2022-09-23T16:41:38;98645.91;;;13.31;61.70
63535;BME280;55128;50.230;18.944;2022-09-23T16:46:47;98643.28;;;12.81;63.76
63535;BME280;55128;50.230;18.944;2022-09-23T16:52:16;98637.53;;;12.40;65.15
63535;BME280;55128;50.230;18.944;2022-09-23T16:57:17;98650.31;;;12.33;63.56
63535;BME280;55128;50.230;18.944;2022-09-23T17:02:17;98638.13;;;12.12;65.59
63535;BME280;55128;50.230;18.944;2022-09-23T17:07:37;98639.25;;;11.71;66.43
63535;BME280;55128;50.230;18.944;2022-09-23T17:12:37;98638.28;;;11.37;69.26
63535;BME280;55128;50.230;18.944;2022-09-23T17:17:38;98629.41;;;11.19;67.40
63535;BME280;55128;50.230;18.944;2022-09-23T17:22:42;98633.22;;;11.14;68.62
63535;BME280;55128;50.230;18.944;2022-09-23T17:27:42;98636.53;;;11.00;68.42
63535;BME280;55128;50.230;18.944;2022-09-23T17:32:43;98643.22;;;10.70;70.95
63535;BME280;55128;50.230;18.944;2022-09-23T17:37:44;98642.19;;;10.54;71.26
63535;BME280;55128;50.230;18.944;2022-09-23T17:42:46;98646.75;;;10.31;71.86
63535;BME280;55128;50.230;18.944;2022-09-23T17:47:50;98643.75;;;10.19;71.74
63535;BME280;55128;50.230;18.944;2022-09-23T17:52:53;98642.16;;;9.94;72.61
63535;BME280;55128;50.230;18.944;2022-09-23T17:57:54;98650.16;;;9.72;73.55
63535;BME280;55128;50.230;18.944;2022-09-23T18:02:55;98649.84;;;9.59;73.45
63535;BME280;55128;50.230;18.944;2022-09-23T18:07:55;98646.97;;;9.64;72.65
63535;BME280;55128;50.230;18.944;2022-09-23T18:12:56;98655.94;;;9.61;72.32
63535;BME280;55128;50.230;18.944;2022-09-23T18:17:56;98653.41;;;9.58;72.23
63535;BME280;55128;50.230;18.944;2022-09-23T18:22:57;98661.13;;;9.42;72.77
63535;BME280;55128;50.230;18.944;2022-09-23T18:27:58;98660.00;;;9.04;74.10
63535;BME280;55128;50.230;18.944;2022-09-23T18:33:00;98660.53;;;8.90;73.54
63535;BME280;55128;50.230;18.944;2022-09-23T18:38:02;98651.72;;;8.89;72.91
63535;BME280;55128;50.230;18.944;2022-09-23T18:43:03;98646.66;;;8.83;72.68
63535;BME280;55128;50.230;18.944;2022-09-23T18:48:04;98648.06;;;8.70;73.60
63535;BME280;55128;50.230;18.944;2022-09-23T18:53:23;98651.09;;;8.59;73.35
63535;BME280;55128;50.230;18.944;2022-09-23T18:58:23;98647.41;;;8.40;74.80
63535;BME280;55128;50.230;18.944;2022-09-23T19:03:24;98651.56;;;8.22;74.76
63535;BME280;55128;50.230;18.944;2022-09-23T19:08:25;98649.16;;;8.15;74.14
63535;BME280;55128;50.230;18.944;2022-09-23T19:13:25;98655.13;;;8.21;73.25
63535;BME280;55128;50.230;18.944;2022-09-23T19:18:26;98648.97;;;8.20;73.27
63535;BME280;55128;50.230;18.944;2022-09-23T19:23:29;98651.47;;;8.00;74.96
63535;BME280;55128;50.230;18.944;2022-09-23T19:28:37;98649.53;;;7.79;75.28
63535;BME280;55128;50.230;18.944;2022-09-23T19:33:38;98640.03;;;7.74;74.81
63535;BME280;55128;50.230;18.944;2022-09-23T19:38:41;98645.34;;;7.72;75.42
63535;BME280;55128;50.230;18.944;2022-09-23T19:43:43;98633.31;;;7.64;75.60
63535;BME280;55128;50.230;18.944;2022-09-23T19:48:45;98636.47;;;7.48;75.93
63535;BME280;55128;50.230;18.944;2022-09-23T19:53:46;98631.53;;;7.37;76.68
63535;BME280;55128;50.230;18.944;2022-09-23T19:58:48;98640.59;;;7.30;77.23
63535;BME280;55128;50.230;18.944;2022-09-23T20:03:51;98632.13;;;7.47;75.66
63535;BME280;55128;50.230;18.944;2022-09-23T20:08:52;98632.00;;;7.50;74.13
63535;BME280;55128;50.230;18.944;2022-09-23T20:13:58;98621.59;;;7.46;74.50
63535;BME280;55128;50.230;18.944;2022-09-23T20:19:03;98626.16;;;7.40;75.26
63535;BME280;55128;50.230;18.944;2022-09-23T20:24:04;98616.75;;;7.32;75.09
63535;BME280;55128;50.230;18.944;2022-09-23T20:29:06;98615.03;;;7.04;76.53
63535;BME280;55128;50.230;18.944;2022-09-23T20:34:08;98613.00;;;6.84;77.47
63535;BME280;55128;50.230;18.944;2022-09-23T20:39:09;98617.06;;;6.94;75.74
63535;BME280;55128;50.230;18.944;2022-09-23T20:44:13;98619.56;;;7.00;76.10
63535;BME280;55128;50.230;18.944;2022-09-23T20:49:17;98606.72;;;6.88;76.27
63535;BME280;55128;50.230;18.944;2022-09-23T20:54:18;98599.81;;;6.84;76.75
63535;BME280;55128;50.230;18.944;2022-09-23T20:59:19;98599.97;;;6.79;77.63
63535;BME280;55128;50.230;18.944;2022-09-23T21:04:22;98605.09;;;6.84;76.21
63535;BME280;55128;50.230;18.944;2022-09-23T21:09:27;98599.91;;;6.81;75.52
63535;BME280;55128;50.230;18.944;2022-09-23T21:14:30;98615.16;;;6.71;76.57
63535;BME280;55128;50.230;18.944;2022-09-23T21:19:34;98618.84;;;6.66;77.09
63535;BME280;55128;50.230;18.944;2022-09-23T21:24:37;98617.94;;;6.67;76.41
63535;BME280;55128;50.230;18.944;2022-09-23T21:30:00;98619.13;;;6.56;76.58
63535;BME280;55128;50.230;18.944;2022-09-23T21:35:00;98615.81;;;6.50;76.89
63535;BME280;55128;50.230;18.944;2022-09-23T21:40:04;98619.63;;;6.39;77.80
63535;BME280;55128;50.230;18.944;2022-09-23T21:45:25;98623.22;;;6.37;77.29
63535;BME280;55128;50.230;18.944;2022-09-23T21:50:27;98616.31;;;6.33;76.78
63535;BME280;55128;50.230;18.944;2022-09-23T21:55:29;98625.94;;;6.34;76.35
63535;BME280;55128;50.230;18.944;2022-09-23T22:00:29;98626.03;;;6.31;76.17
63535;BME280;55128;50.230;18.944;2022-09-23T22:05:30;98619.28;;;6.20;77.14
63535;BME280;55128;50.230;18.944;2022-09-23T22:10:32;98630.75;;;6.19;77.02
63535;BME280;55128;50.230;18.944;2022-09-23T22:15:33;98634.25;;;6.20;77.76
63535;BME280;55128;50.230;18.944;2022-09-23T22:20:35;98625.16;;;6.30;77.13
63535;BME280;55128;50.230;18.944;2022-09-23T22:25:36;98628.34;;;6.41;77.28
63535;BME280;55128;50.230;18.944;2022-09-23T22:30:37;98617.31;;;6.58;77.20
63535;BME280;55128;50.230;18.944;2022-09-23T22:36:00;98614.34;;;6.69;76.87
63535;BME280;55128;50.230;18.944;2022-09-23T22:41:01;98608.88;;;6.75;76.83
63535;BME280;55128;50.230;18.944;2022-09-23T22:46:01;98609.59;;;6.80;77.52
63535;BME280;55128;50.230;18.944;2022-09-23T22:51:05;98602.31;;;6.89;76.71
63535;BME280;55128;50.230;18.944;2022-09-23T22:56:05;98604.09;;;6.88;76.77
63535;BME280;55128;50.230;18.944;2022-09-23T23:01:06;98606.63;;;6.91;76.48
63535;BME280;55128;50.230;18.944;2022-09-23T23:06:09;98597.94;;;6.88;76.32
63535;BME280;55128;50.230;18.944;2022-09-23T23:11:10;98595.59;;;6.78;77.00
63535;BME280;55128;50.230;18.944;2022-09-23T23:16:11;98610.75;;;6.72;77.54
63535;BME280;55128;50.230;18.944;2022-09-23T23:21:15;98596.75;;;6.70;77.36
63535;BME280;55128;50.230;18.944;2022-09-23T23:26:27;98595.06;;;6.67;77.29
63535;BME280;55128;50.230;18.944;2022-09-23T23:31:28;98599.38;;;6.70;77.37
63535;BME280;55128;50.230;18.944;2022-09-23T23:36:31;98593.97;;;6.74;77.48
63535;BME280;55128;50.230;18.944;2022-09-23T23:41:31;98588.50;;;6.80;77.76
63535;BME280;55128;50.230;18.944;2022-09-23T23:46:32;98586.88;;;6.76;77.29
63535;BME280;55128;50.230;18.944;2022-09-23T23:51:33;98588.97;;;6.93;76.74
63535;BME280;55128;50.230;18.944;2022-09-23T23:56:33;98586.94;;;7.01;77.05
